sensor_id;sensor_type;location;lat;lon;timestamp;pressure;altitude;pressure_sealevel;temperature;humidity
9695;BME280;4690;52.422;13.486;2023-03-14T00:05:09;98998.94;;;13.42;74.68
9695;BME280;4690;52.422;13.486;2023-03-14T00:07:39;99001.19;;;13.40;75.01
9695;BME280;4690;52.422;13.486;2023-03-14T00:10:09;98997.59;;;13.40;74.93
9695;BME280;4690;52.422;13.486;2023-03-14T00:12:36;98995.44;;;13.32;75.76
9695;BME280;4690;52.422;13.486;2023-03-14T00:15:02;98992.97;;;13.35;75.69
9695;BME280;4690;52.422;13.486;2023-03-14T00:17:30;98980.81;;;13.41;75.67
9695;BME280;4690;52.422;13.486;2023-03-14T00:19:56;98963.16;;;13.42;75.57
9695;BME280;4690;52.422;13.486;2023-03-14T00:22:22;98959.47;;;13.23;76.39
9695;BME280;4690;52.422;13.486;2023-03-14T00:24:48;98941.00;;;13.29;76.48
9695;BME280;4690;52.422;13.486;2023-03-14T00:27:14;98933.69;;;13.14;77.15
9695;BME280;4690;52.422;13.486;2023-03-14T00:29:39;98932.09;;;13.08;77.65
9695;BME280;4690;52.422;13.486;2023-03-14T00:32:05;98925.97;;;13.16;77.68
9695;BME280;4690;52.422;13.486;2023-03-14T00:34:33;98934.16;;;13.26;77.07
9695;BME280;4690;52.422;13.486;2023-03-14T00:36:58;98934.06;;;13.02;78.17
9695;BME280;4690;52.422;13.486;2023-03-14T00:39:24;98920.69;;;12.90;78.84
9695;BME280;4690;52.422;13.486;2023-03-14T00:41:50;98916.03;;;12.91;79.00
9695;BME280;4690;52.422;13.486;2023-03-14T00:44:15;98920.91;;;12.99;78.39
9695;BME280;4690;52.422;13.486;2023-03-14T00:46:41;98920.88;;;13.04;78.66
9695;BME280;4690;52.422;13.486;2023-03-14T00:49:07;98931.66;;;12.95;78.95
9695;BME280;4690;52.422;13.486;2023-03-14T00:51:32;98928.41;;;12.88;79.03
9695;BME280;4690;52.422;13.486;2023-03-14T00:54:00;98933.72;;;12.74;79.98
9695;BME280;4690;52.422;13.486;2023-03-14T00:56:26;98922.38;;;12.86;79.63
9695;BME280;4690;52.422;13.486;2023-03-14T00:58:55;98906.88;;;12.61;80.77
9695;BME280;4690;52.422;13.486;2023-03-14T01:01:21;98903.22;;;12.76;80.28
9695;BME280;4690;52.422;13.486;2023-03-14T01:03:51;98894.84;;;12.57;80.83
9695;BME280;4690;52.422;13.486;2023-03-14T01:06:21;98890.50;;;12.51;81.38
9695;BME280;4690;52.422;13.486;2023-03-14T01:08:48;98878.59;;;12.61;80.85
9695;BME280;4690;52.422;13.486;2023-03-14T01:11:19;98869.94;;;12.77;80.43
9695;BME280;4690;52.422;13.486;2023-03-14T01:13:45;98882.00;;;12.47;81.42
9695;BME280;4690;52.422;13.486;2023-03-14T01:16:13;98885.88;;;12.41;81.86
9695;BME280;4690;52.422;13.486;2023-03-14T01:18:42;98897.63;;;12.47;81.52
9695;BME280;4690;52.422;13.486;2023-03-14T01:21:23;98903.69;;;12.49;81.45
9695;BME280;4690;52.422;13.486;2023-03-14T01:23:52;98931.72;;;12.46;81.80
9695;BME280;4690;52.422;13.486;2023-03-14T01:26:21;98944.28;;;12.57;81.33
9695;BME280;4690;52.422;13.486;2023-03-14T01:28:50;98956.63;;;12.65;80.89
9695;BME280;4690;52.422;13.486;2023-03-14T01:31:16;98947.19;;;12.31;82.40
9695;BME280;4690;52.422;13.486;2023-03-14T01:33:44;98942.28;;;12.23;82.73
9695;BME280;4690;52.422;13.486;2023-03-14T01:36:11;98959.31;;;12.25;83.40
9695;BME280;4690;52.422;13.486;2023-03-14T01:38:38;98948.47;;;12.44;82.75
9695;BME280;4690;52.422;13.486;2023-03-14T01:41:07;98934.91;;;12.63;81.56
9695;BME280;4690;52.422;13.486;2023-03-14T01:43:34;98948.41;;;12.60;81.45
9695;BME280;4690;52.422;13.486;2023-03-14T01:48:50;98958.78;;;12.73;81.07
9695;BME280;4690;52.422;13.486;2023-03-14T01:51:59;98957.44;;;12.65;81.22
9695;BME280;4690;52.422;13.486;2023-03-14T01:54:39;98966.81;;;12.59;81.83
9695;BME280;4690;52.422;13.486;2023-03-14T01:57:34;98966.09;;;12.38;82.70
9695;BME280;4690;52.422;13.486;2023-03-14T02:00:09;98963.31;;;12.48;82.32
9695;BME280;4690;52.422;13.486;2023-03-14T02:02:53;98959.06;;;12.66;81.70
9695;BME280;4690;52.422;13.486;2023-03-14T02:05:29;98951.88;;;12.75;81.35
9695;BME280;4690;52.422;13.486;2023-03-14T02:08:01;98944.44;;;12.76;80.67
9695;BME280;4690;52.422;13.486;2023-03-14T02:10:33;98935.78;;;12.59;80.99
9695;BME280;4690;52.422;13.486;2023-03-14T02:13:03;98932.72;;;12.60;81.39
9695;BME280;4690;52.422;13.486;2023-03-14T02:15:30;98922.09;;;12.48;81.64
9695;BME280;4690;52.422;13.486;2023-03-14T02:17:58;98913.09;;;12.38;82.13
9695;BME280;4690;52.422;13.486;2023-03-14T02:22:54;98927.38;;;12.40;82.42
9695;BME280;4690;52.422;13.486;2023-03-14T02:28:16;98922.28;;;12.18;82.97
9695;BME280;4690;52.422;13.486;2023-03-14T02:30:43;98917.31;;;12.25;82.85
9695;BME280;4690;52.422;13.486;2023-03-14T02:33:19;98914.22;;;12.31;82.26
9695;BME280;4690;52.422;13.486;2023-03-14T02:35:53;98917.75;;;12.42;81.87
9695;BME280;4690;52.422;13.486;2023-03-14T02:38:46;98922.59;;;12.55;81.33
9695;BME280;4690;52.422;13.486;2023-03-14T02:41:14;98905.53;;;12.19;82.62
9695;BME280;4690;52.422;13.486;2023-03-14T02:43:40;98906.59;;;12.23;82.90
9695;BME280;4690;52.422;13.486;2023-03-14T02:46:12;98901.31;;;12.32;82.49
9695;BME280;4690;52.422;13.486;2023-03-14T02:49:07;98892.44;;;12.45;81.64
9695;BME280;4690;52.422;13.486;2023-03-14T02:51:35;98902.69;;;12.34;82.06
9695;BME280;4690;52.422;13.486;2023-03-14T02:54:03;98889.53;;;12.26;82.70
9695;BME280;4690;52.422;13.486;2023-03-14T02:56:29;98873.72;;;12.08;83.15
9695;BME280;4690;52.422;13.486;2023-03-14T02:58:54;98869.66;;;11.85;84.22
9695;BME280;4690;52.422;13.486;2023-03-14T03:01:20;98863.34;;;12.00;83.73
9695;BME280;4690;52.422;13.486;2023-03-14T03:03:46;98872.66;;;11.99;83.93
9695;BME280;4690;52.422;13.486;2023-03-14T03:06:12;98860.03;;;12.03;83.94
9695;BME280;4690;52.422;13.486;2023-03-14T03:08:37;98847.00;;;12.19;82.91
9695;BME280;4690;52.422;13.486;2023-03-14T03:11:05;98847.31;;;12.17;83.34
9695;BME280;4690;52.422;13.486;2023-03-14T03:13:30;98826.97;;;12.18;82.55
9695;BME280;4690;52.422;13.486;2023-03-14T03:15:56;98828.69;;;12.09;82.94
9695;BME280;4690;52.422;13.486;2023-03-14T03:18:22;98807.78;;;12.13;82.72
9695;BME280;4690;52.422;13.486;2023-03-14T03:20:48;98813.41;;;12.32;82.45
9695;BME280;4690;52.422;13.486;2023-03-14T03:23:14;98807.88;;;12.03;82.86
9695;BME280;4690;52.422;13.486;2023-03-14T03:25:39;98803.47;;;12.02;82.98
9695;BME280;4690;52.422;13.486;2023-03-14T03:28:05;98816.88;;;12.14;82.76
9695;BME280;4690;52.422;13.486;2023-03-14T03:30:38;98825.63;;;12.16;82.46
9695;BME280;4690;52.422;13.486;2023-03-14T03:33:04;98839.31;;;12.21;82.21
9695;BME280;4690;52.422;13.486;2023-03-14T03:35:30;98842.16;;;12.05;82.54
9695;BME280;4690;52.422;13.486;2023-03-14T03:37:56;98838.69;;;11.89;83.48
9695;BME280;4690;52.422;13.486;2023-03-14T03:40:22;98833.50;;;11.78;83.78
9695;BME280;4690;52.422;13.486;2023-03-14T03:42:48;98842.28;;;11.80;84.15
9695;BME280;4690;52.422;13.486;2023-03-14T03:45:13;98845.78;;;11.96;83.40
9695;BME280;4690;52.422;13.486;2023-03-14T03:47:39;98853.41;;;12.04;82.71
9695;BME280;4690;52.422;13.486;2023-03-14T03:50:05;98841.06;;;12.06;82.42
9695;BME280;4690;52.422;13.486;2023-03-14T03:52:31;98832.03;;;12.01;82.54
9695;BME280;4690;52.422;13.486;2023-03-14T03:54:57;98835.88;;;12.00;82.63
9695;BME280;4690;52.422;13.486;2023-03-14T03:57:23;98829.53;;;12.04;82.17
9695;BME280;4690;52.422;13.486;2023-03-14T03:59:49;98829.75;;;12.13;82.26
9695;BME280;4690;52.422;13.486;2023-03-14T04:02:14;98832.28;;;12.04;82.26
9695;BME280;4690;52.422;13.486;2023-03-14T04:04:40;98835.59;;;11.96;82.35
9695;BME280;4690;52.422;13.486;2023-03-14T04:07:06;98854.66;;;11.72;83.74
9695;BME280;4690;52.422;13.486;2023-03-14T04:09:32;98846.13;;;11.74;83.44
9695;BME280;4690;52.422;13.486;2023-03-14T04:11:57;98832.13;;;11.75;83.25
9695;BME280;4690;52.422;13.486;2023-03-14T04:14:23;98837.97;;;11.63;83.87
9695;BME280;4690;52.422;13.486;2023-03-14T04:16:49;98837.66;;;11.65;83.80
9695;BME280;4690;52.422;13.486;2023-03-14T04:19:15;98842.63;;;11.58;84.19
9695;BME280;4690;52.422;13.486;2023-03-14T04:21:41;98828.38;;;11.51;84.09
9695;BME280;4690;52.422;13.486;2023-03-14T04:24:10;98825.06;;;11.64;83.95
9695;BME280;4690;52.422;13.486;2023-03-14T04:26:36;98815.13;;;11.73;83.18
9695;BME280;4690;52.422;13.486;2023-03-14T04:29:02;98819.66;;;11.43;84.07
9695;BME280;4690;52.422;13.486;2023-03-14T04:31:28;98813.53;;;11.62;83.74
9695;BME280;4690;52.422;13.486;2023-03-14T04:33:53;98810.78;;;11.62;83.06
9695;BME280;4690;52.422;13.486;2023-03-14T04:36:19;98797.84;;;11.73;82.65
9695;BME280;4690;52.422;13.486;2023-03-14T04:38:45;98792.03;;;11.79;82.52
9695;BME280;4690;52.422;13.486;2023-03-14T04:41:11;98791.19;;;11.89;81.89
9695;BME280;4690;52.422;13.486;2023-03-14T04:43:37;98803.13;;;11.59;82.83
9695;BME280;4690;52.422;13.486;2023-03-14T04:46:03;98783.84;;;11.74;82.04
9695;BME280;4690;52.422;13.486;2023-03-14T04:48:29;98781.34;;;11.78;81.64
9695;BME280;4690;52.422;13.486;2023-03-14T04:50:55;98779.78;;;11.61;81.59
9695;BME280;4690;52.422;13.486;2023-03-14T04:53:21;98779.91;;;11.41;83.03
9695;BME280;4690;52.422;13.486;2023-03-14T04:55:55;98767.50;;;11.49;82.71
9695;BME280;4690;52.422;13.486;2023-03-14T04:58:23;98760.13;;;11.49;82.28
9695;BME280;4690;52.422;13.486;2023-03-14T05:00:49;98762.19;;;11.67;81.80
9695;BME280;4690;52.422;13.486;2023-03-14T05:03:16;98762.50;;;11.61;81.36
9695;BME280;4690;52.422;13.486;2023-03-14T05:05:43;98766.69;;;11.43;81.78
9695;BME280;4690;52.422;13.486;2023-03-14T05:08:09;98788.81;;;11.67;81.44
9695;BME280;4690;52.422;13.486;2023-03-14T05:10:35;98782.75;;;11.70;80.76
9695;BME280;4690;52.422;13.486;2023-03-14T05:13:00;98785.03;;;11.58;80.81
9695;BME280;4690;52.422;13.486;2023-03-14T05:15:26;98784.22;;;11.57;80.61
9695;BME280;4690;52.422;13.486;2023-03-14T05:17:52;98765.59;;;11.49;81.01
9695;BME280;4690;52.422;13.486;2023-03-14T05:20:20;98763.59;;;11.60;80.72
9695;BME280;4690;52.422;13.486;2023-03-14T05:22:46;98754.28;;;11.61;80.45
9695;BME280;4690;52.422;13.486;2023-03-14T05:25:12;98751.03;;;11.54;80.25
9695;BME280;4690;52.422;13.486;2023-03-14T05:27:38;98753.03;;;11.38;80.69
9695;BME280;4690;52.422;13.486;2023-03-14T05:30:05;98752.63;;;11.60;80.26
9695;BME280;4690;52.422;13.486;2023-03-14T05:32:31;98758.53;;;11.87;78.73
9695;BME280;4690;52.422;13.486;2023-03-14T05:34:57;98757.28;;;11.64;79.21
9695;BME280;4690;52.422;13.486;2023-03-14T05:37:27;98760.59;;;11.56;79.16
9695;BME280;4690;52.422;13.486;2023-03-14T05:39:53;98763.66;;;11.55;79.49
9695;BME280;4690;52.422;13.486;2023-03-14T05:42:19;98757.31;;;11.59;79.00
9695;BME280;4690;52.422;13.486;2023-03-14T05:44:45;98759.69;;;11.71;78.22
9695;BME280;4690;52.422;13.486;2023-03-14T05:47:11;98768.78;;;11.72;77.94
9695;BME280;4690;52.422;13.486;2023-03-14T05:49:37;98764.13;;;11.67;77.62
9695;BME280;4690;52.422;13.486;2023-03-14T05:52:03;98767.47;;;11.59;77.78
9695;BME280;4690;52.422;13.486;2023-03-14T05:54:29;98768.56;;;11.63;77.81
9695;BME280;4690;52.422;13.486;2023-03-14T05:56:54;98761.81;;;11.89;76.98
9695;BME280;4690;52.422;13.486;2023-03-14T05:59:20;98762.94;;;11.83;76.46
9695;BME280;4690;52.422;13.486;2023-03-14T06:01:46;98751.13;;;11.88;76.60
9695;BME280;4690;52.422;13.486;2023-03-14T06:04:12;98749.16;;;11.94;76.17
9695;BME280;4690;52.422;13.486;2023-03-14T06:06:38;98747.19;;;11.99;75.34
9695;BME280;4690;52.422;13.486;2023-03-14T06:09:04;98752.56;;;11.75;75.96
9695;BME280;4690;52.422;13.486;2023-03-14T06:11:30;98762.94;;;11.83;75.75
9695;BME280;4690;52.422;13.486;2023-03-14T06:13:56;98753.47;;;12.05;74.93
9695;BME280;4690;52.422;13.486;2023-03-14T06:16:21;98744.75;;;11.98;75.02
9695;BME280;4690;52.422;13.486;2023-03-14T06:18:47;98747.69;;;12.11;74.53
9695;BME280;4690;52.422;13.486;2023-03-14T06:21:15;98752.59;;;11.65;75.61
9695;BME280;4690;52.422;13.486;2023-03-14T06:23:40;98753.19;;;11.62;75.85
9695;BME280;4690;52.422;13.486;2023-03-14T06:26:06;98753.34;;;11.81;75.37
9695;BME280;4690;52.422;13.486;2023-03-14T06:28:32;98759.75;;;11.66;75.33
9695;BME280;4690;52.422;13.486;2023-03-14T06:30:59;98753.69;;;11.69;75.26
9695;BME280;4690;52.422;13.486;2023-03-14T06:33:25;98755.28;;;11.85;74.80
9695;BME280;4690;52.422;13.486;2023-03-14T06:35:51;98758.25;;;11.89;74.29
9695;BME280;4690;52.422;13.486;2023-03-14T06:38:17;98765.13;;;11.86;74.34
9695;BME280;4690;52.422;13.486;2023-03-14T06:40:43;98767.16;;;12.10;73.87
9695;BME280;4690;52.422;13.486;2023-03-14T06:43:08;98763.78;;;11.79;74.29
9695;BME280;4690;52.422;13.486;2023-03-14T06:45:34;98763.41;;;12.01;74.15
9695;BME280;4690;52.422;13.486;2023-03-14T06:48:00;98758.84;;;12.25;72.83
9695;BME280;4690;52.422;13.486;2023-03-14T06:50:26;98772.53;;;11.91;74.01
9695;BME280;4690;52.422;13.486;2023-03-14T06:52:51;98784.72;;;12.14;73.53
9695;BME280;4690;52.422;13.486;2023-03-14T06:55:17;98782.97;;;12.28;72.91
9695;BME280;4690;52.422;13.486;2023-03-14T06:57:43;98783.78;;;12.29;72.56
9695;BME280;4690;52.422;13.486;2023-03-14T07:00:11;98803.56;;;12.31;72.39
9695;BME280;4690;52.422;13.486;2023-03-14T07:02:37;98783.59;;;12.20;72.38
9695;BME280;4690;52.422;13.486;2023-03-14T07:05:04;98788.28;;;12.49;72.32
9695;BME280;4690;52.422;13.486;2023-03-14T07:07:30;98793.72;;;12.59;71.05
9695;BME280;4690;52.422;13.486;2023-03-14T07:09:56;98799.22;;;12.59;71.24
9695;BME280;4690;52.422;13.486;2023-03-14T07:12:21;98799.75;;;12.90;70.57
9695;BME280;4690;52.422;13.486;2023-03-14T07:14:47;98805.78;;;12.58;70.68
9695;BME280;4690;52.422;13.486;2023-03-14T07:17:13;98809.78;;;12.76;70.86
9695;BME280;4690;52.422;13.486;2023-03-14T07:19:39;98808.25;;;12.60;71.42
9695;BME280;4690;52.422;13.486;2023-03-14T07:22:05;98813.16;;;12.33;71.83
9695;BME280;4690;52.422;13.486;2023-03-14T07:24:31;98804.41;;;12.26;72.91
9695;BME280;4690;52.422;13.486;2023-03-14T07:26:57;98804.41;;;12.26;72.42
9695;BME280;4690;52.422;13.486;2023-03-14T07:29:23;98805.41;;;12.36;72.35
9695;BME280;4690;52.422;13.486;2023-03-14T07:31:49;98814.56;;;12.60;71.20
9695;BME280;4690;52.422;13.486;2023-03-14T07:34:14;98814.50;;;12.70;70.67
9695;BME280;4690;52.422;13.486;2023-03-14T07:36:40;98811.78;;;12.65;71.04
9695;BME280;4690;52.422;13.486;2023-03-14T07:39:06;98817.19;;;12.75;70.11
9695;BME280;4690;52.422;13.486;2023-03-14T07:41:33;98809.28;;;12.69;70.59
9695;BME280;4690;52.422;13.486;2023-03-14T07:43:59;98815.78;;;12.78;70.46
9695;BME280;4690;52.422;13.486;2023-03-14T07:46:24;98814.19;;;12.72;70.29
9695;BME280;4690;52.422;13.486;2023-03-14T07:48:50;98813.53;;;12.56;70.63
9695;BME280;4690;52.422;13.486;2023-03-14T07:51:16;98818.44;;;12.59;71.23
9695;BME280;4690;52.422;13.486;2023-03-14T07:53:42;98815.78;;;12.78;70.44
9695;BME280;4690;52.422;13.486;2023-03-14T07:56:09;98814.56;;;12.89;70.28
9695;BME280;4690;52.422;13.486;2023-03-14T07:58:35;98815.06;;;12.67;71.31
9695;BME280;4690;52.422;13.486;2023-03-14T08:01:00;98820.91;;;12.90;69.78
9695;BME280;4690;52.422;13.486;2023-03-14T08:03:26;98813.13;;;12.97;69.50
9695;BME280;4690;52.422;13.486;2023-03-14T08:05:52;98818.63;;;13.26;68.54
9695;BME280;4690;52.422;13.486;2023-03-14T08:08:18;98806.50;;;13.75;66.94
9695;BME280;4690;52.422;13.486;2023-03-14T08:10:45;98802.50;;;14.05;65.64
9695;BME280;4690;52.422;13.486;2023-03-14T08:13:12;98798.81;;;13.72;66.22
9695;BME280;4690;52.422;13.486;2023-03-14T08:15:38;98804.16;;;13.63;66.89
9695;BME280;4690;52.422;13.486;2023-03-14T08:18:05;98805.13;;;13.73;66.79
9695;BME280;4690;52.422;13.486;2023-03-14T08:20:31;98794.59;;;13.80;66.28
9695;BME280;4690;52.422;13.486;2023-03-14T08:22:59;98792.13;;;13.78;66.49
9695;BME280;4690;52.422;13.486;2023-03-14T08:25:27;98794.72;;;14.07;65.29
9695;BME280;4690;52.422;13.486;2023-03-14T08:27:53;98794.59;;;14.18;64.60
9695;BME280;4690;52.422;13.486;2023-03-14T08:30:21;98797.69;;;13.73;65.97
9695;BME280;4690;52.422;13.486;2023-03-14T08:32:48;98798.72;;;13.58;66.33
9695;BME280;4690;52.422;13.486;2023-03-14T08:35:14;98799.59;;;13.54;67.40
9695;BME280;4690;52.422;13.486;2023-03-14T08:37:40;98808.91;;;13.58;67.09
9695;BME280;4690;52.422;13.486;2023-03-14T08:40:08;98815.59;;;13.52;66.67
9695;BME280;4690;52.422;13.486;2023-03-14T08:42:39;98810.78;;;13.38;67.79
9695;BME280;4690;52.422;13.486;2023-03-14T08:45:08;98813.59;;;13.33;67.86
9695;BME280;4690;52.422;13.486;2023-03-14T08:47:34;98815.84;;;13.02;69.01
9695;BME280;4690;52.422;13.486;2023-03-14T08:50:00;98818.72;;;13.16;68.98
9695;BME280;4690;52.422;13.486;2023-03-14T08:52:25;98813.25;;;13.40;68.28
9695;BME280;4690;52.422;13.486;2023-03-14T08:54:51;98814.28;;;13.68;67.00
9695;BME280;4690;52.422;13.486;2023-03-14T08:57:17;98811.41;;;13.97;66.19
9695;BME280;4690;52.422;13.486;2023-03-14T08:59:43;98824.88;;;13.80;66.28
9695;BME280;4690;52.422;13.486;2023-03-14T09:02:11;98828.34;;;13.66;66.60
9695;BME280;4690;52.422;13.486;2023-03-14T09:04:37;98824.09;;;13.55;67.20
9695;BME280;4690;52.422;13.486;2023-03-14T09:07:02;98824.84;;;13.37;67.42
9695;BME280;4690;52.422;13.486;2023-03-14T09:09:28;98817.38;;;13.13;69.33
9695;BME280;4690;52.422;13.486;2023-03-14T09:11:56;98808.97;;;13.29;68.19
9695;BME280;4690;52.422;13.486;2023-03-14T09:14:22;98807.34;;;13.52;67.61
9695;BME280;4690;52.422;13.486;2023-03-14T09:16:48;98805.88;;;13.78;66.62
9695;BME280;4690;52.422;13.486;2023-03-14T09:19:14;98796.81;;;13.78;66.96
9695;BME280;4690;52.422;13.486;2023-03-14T09:21:40;98796.25;;;14.51;64.71
9695;BME280;4690;52.422;13.486;2023-03-14T09:24:07;98786.34;;;15.43;61.51
9695;BME280;4690;52.422;13.486;2023-03-14T09:26:33;98786.63;;;15.42;59.73
9695;BME280;4690;52.422;13.486;2023-03-14T09:28:59;98783.88;;;15.69;58.91
9695;BME280;4690;52.422;13.486;2023-03-14T09:31:25;98780.03;;;16.29;56.71
9695;BME280;4690;52.422;13.486;2023-03-14T09:33:51;98784.94;;;15.96;57.15
9695;BME280;4690;52.422;13.486;2023-03-14T09:36:16;98786.19;;;16.26;56.07
9695;BME280;4690;52.422;13.486;2023-03-14T09:38:42;98782.38;;;16.58;54.56
9695;BME280;4690;52.422;13.486;2023-03-14T09:41:31;98795.78;;;16.06;55.75
9695;BME280;4690;52.422;13.486;2023-03-14T09:44:14;98792.03;;;15.88;55.62
9695;BME280;4690;52.422;13.486;2023-03-14T09:46:45;98806.97;;;16.24;55.09
9695;BME280;4690;52.422;13.486;2023-03-14T09:49:52;98787.97;;;16.22;54.73
9695;BME280;4690;52.422;13.486;2023-03-14T09:52:31;98803.00;;;16.16;54.10
9695;BME280;4690;52.422;13.486;2023-03-14T09:55:03;98786.78;;;16.01;55.78
9695;BME280;4690;52.422;13.486;2023-03-14T09:57:32;98783.84;;;15.97;54.38
9695;BME280;4690;52.422;13.486;2023-03-14T10:00:05;98798.06;;;15.77;55.78
9695;BME280;4690;52.422;13.486;2023-03-14T10:02:43;98796.75;;;15.60;54.84
9695;BME280;4690;52.422;13.486;2023-03-14T10:05:18;98804.94;;;15.24;54.96
9695;BME280;4690;52.422;13.486;2023-03-14T10:07:44;98805.13;;;15.14;55.49
9695;BME280;4690;52.422;13.486;2023-03-14T10:10:17;98809.78;;;14.86;57.12
9695;BME280;4690;52.422;13.486;2023-03-14T10:12:47;98811.84;;;14.94;57.29
9695;BME280;4690;52.422;13.486;2023-03-14T10:15:24;98806.97;;;15.18;56.25
9695;BME280;4690;52.422;13.486;2023-03-14T10:17:51;98804.34;;;14.80;57.41
9695;BME280;4690;52.422;13.486;2023-03-14T10:20:36;98807.00;;;14.86;57.90
9695;BME280;4690;52.422;13.486;2023-03-14T10:23:18;98804.53;;;14.70;57.70
9695;BME280;4690;52.422;13.486;2023-03-14T10:26:16;98802.63;;;14.85;57.57
9695;BME280;4690;52.422;13.486;2023-03-14T10:29:00;98806.69;;;14.73;57.34
9695;BME280;4690;52.422;13.486;2023-03-14T10:31:27;98813.66;;;14.52;57.63
9695;BME280;4690;52.422;13.486;2023-03-14T10:34:04;98810.00;;;14.38;58.44
9695;BME280;4690;52.422;13.486;2023-03-14T10:36:33;98812.53;;;14.34;58.87
9695;BME280;4690;52.422;13.486;2023-03-14T10:39:38;98816.31;;;14.57;57.75
9695;BME280;4690;52.422;13.486;2023-03-14T10:44:42;98803.44;;;14.52;57.04
9695;BME280;4690;52.422;13.486;2023-03-14T10:47:19;98804.09;;;14.44;57.92
9695;BME280;4690;52.422;13.486;2023-03-14T10:49:46;98803.06;;;14.40;57.33
9695;BME280;4690;52.422;13.486;2023-03-14T10:52:28;98810.59;;;14.16;58.62
9695;BME280;4690;52.422;13.486;2023-03-14T10:55:02;98810.81;;;14.38;58.24
9695;BME280;4690;52.422;13.486;2023-03-14T10:57:28;98807.38;;;14.27;59.12
9695;BME280;4690;52.422;13.486;2023-03-14T10:59:56;98803.16;;;13.97;59.84
9695;BME280;4690;52.422;13.486;2023-03-14T11:03:07;98808.28;;;14.04;60.27
9695;BME280;4690;52.422;13.486;2023-03-14T11:06:07;98805.16;;;14.10;60.64
9695;BME280;4690;52.422;13.486;2023-03-14T11:08:57;98816.03;;;13.83;61.83
9695;BME280;4690;52.422;13.486;2023-03-14T11:11:32;98810.91;;;13.95;61.83
9695;BME280;4690;52.422;13.486;2023-03-14T11:14:36;98792.44;;;14.15;61.20
9695;BME280;4690;52.422;13.486;2023-03-14T11:17:44;98807.03;;;14.15;60.99
9695;BME280;4690;52.422;13.486;2023-03-14T11:29:36;98805.53;;;14.23;61.73
9695;BME280;4690;52.422;13.486;2023-03-14T11:32:19;98797.63;;;14.35;61.59
9695;BME280;4690;52.422;13.486;2023-03-14T11:34:53;98802.25;;;14.40;61.36
9695;BME280;4690;52.422;13.486;2023-03-14T11:37:34;98804.41;;;14.24;61.54
9695;BME280;4690;52.422;13.486;2023-03-14T11:40:23;98808.13;;;14.33;61.22
9695;BME280;4690;52.422;13.486;2023-03-14T11:43:33;98804.25;;;14.34;61.98
9695;BME280;4690;52.422;13.486;2023-03-14T11:51:59;98811.63;;;14.39;62.15
9695;BME280;4690;52.422;13.486;2023-03-14T11:54:52;98814.97;;;14.35;65.42
9695;BME280;4690;52.422;13.486;2023-03-14T11:57:20;98807.41;;;14.08;68.24
9695;BME280;4690;52.422;13.486;2023-03-14T12:11:31;98806.06;;;12.62;81.44
9695;BME280;4690;52.422;13.486;2023-03-14T12:14:00;98802.22;;;12.57;82.29
9695;BME280;4690;52.422;13.486;2023-03-14T12:16:37;98801.00;;;12.74;83.31
9695;BME280;4690;52.422;13.486;2023-03-14T12:22:06;98799.53;;;12.13;84.89
9695;BME280;4690;52.422;13.486;2023-03-14T12:24:37;98788.84;;;12.17;85.79
9695;BME280;4690;52.422;13.486;2023-03-14T12:27:06;98775.34;;;12.54;83.86
9695;BME280;4690;52.422;13.486;2023-03-14T12:29:58;98778.41;;;12.48;82.37
9695;BME280;4690;52.422;13.486;2023-03-14T12:32:25;98764.63;;;12.82;83.08
9695;BME280;4690;52.422;13.486;2023-03-14T12:34:51;98765.22;;;13.03;78.60
9695;BME280;4690;52.422;13.486;2023-03-14T12:37:33;98766.63;;;13.24;76.42
9695;BME280;4690;52.422;13.486;2023-03-14T12:40:19;98754.00;;;13.48;73.31
9695;BME280;4690;52.422;13.486;2023-03-14T12:43:01;98767.53;;;13.44;71.55
9695;BME280;4690;52.422;13.486;2023-03-14T12:45:36;98757.91;;;13.84;70.20
9695;BME280;4690;52.422;13.486;2023-03-14T12:50:53;98745.72;;;13.72;67.47
9695;BME280;4690;52.422;13.486;2023-03-14T12:57:15;98748.56;;;14.18;66.36
9695;BME280;4690;52.422;13.486;2023-03-14T12:59:58;98750.19;;;14.38;66.11
9695;BME280;4690;52.422;13.486;2023-03-14T13:02:39;98741.00;;;14.62;65.39
9695;BME280;4690;52.422;13.486;2023-03-14T13:05:15;98742.44;;;14.59;65.99
9695;BME280;4690;52.422;13.486;2023-03-14T13:13:21;98731.34;;;14.45;66.54
9695;BME280;4690;52.422;13.486;2023-03-14T13:15:49;98727.53;;;14.08;66.80
9695;BME280;4690;52.422;13.486;2023-03-14T13:18:39;98721.16;;;14.27;65.95
9695;BME280;4690;52.422;13.486;2023-03-14T13:21:16;98715.03;;;14.30;63.87
9695;BME280;4690;52.422;13.486;2023-03-14T13:24:05;98732.44;;;14.44;64.17
9695;BME280;4690;52.422;13.486;2023-03-14T13:26:41;98728.19;;;14.52;63.87
9695;BME280;4690;52.422;13.486;2023-03-14T13:29:22;98728.13;;;14.57;63.33
9695;BME280;4690;52.422;13.486;2023-03-14T13:32:21;98735.19;;;14.44;64.26
9695;BME280;4690;52.422;13.486;2023-03-14T13:34:48;98741.22;;;14.79;65.38
9695;BME280;4690;52.422;13.486;2023-03-14T13:37:22;98741.28;;;15.07;64.50
9695;BME280;4690;52.422;13.486;2023-03-14T13:39:56;98741.66;;;15.41;63.96
9695;BME280;4690;52.422;13.486;2023-03-14T13:42:28;98738.34;;;15.67;62.39
9695;BME280;4690;52.422;13.486;2023-03-14T13:44:56;98729.16;;;15.58;63.18
9695;BME280;4690;52.422;13.486;2023-03-14T13:47:25;98739.16;;;15.81;62.98
9695;BME280;4690;52.422;13.486;2023-03-14T13:49:52;98736.66;;;15.43;64.85
9695;BME280;4690;52.422;13.486;2023-03-14T13:52:37;98730.63;;;15.41;65.13
9695;BME280;4690;52.422;13.486;2023-03-14T13:55:06;98730.09;;;15.25;66.73
9695;BME280;4690;52.422;13.486;2023-03-14T13:57:54;98730.94;;;15.26;65.85
9695;BME280;4690;52.422;13.486;2023-03-14T14:00:26;98730.81;;;14.76;67.11
9695;BME280;4690;52.422;13.486;2023-03-14T14:02:58;98738.47;;;14.79;67.05
9695;BME280;4690;52.422;13.486;2023-03-14T14:05:29;98734.25;;;14.54;68.92
9695;BME280;4690;52.422;13.486;2023-03-14T14:07:57;98731.31;;;14.92;67.88
9695;BME280;4690;52.422;13.486;2023-03-14T14:10:25;98722.34;;;15.00;68.12
9695;BME280;4690;52.422;13.486;2023-03-14T14:13:15;98718.97;;;15.03;68.21
9695;BME280;4690;52.422;13.486;2023-03-14T14:15:49;98718.59;;;15.10;67.74
9695;BME280;4690;52.422;13.486;2023-03-14T14:18:20;98716.22;;;14.89;68.27
9695;BME280;4690;52.422;13.486;2023-03-14T14:20:50;98715.22;;;14.99;68.28
9695;BME280;4690;52.422;13.486;2023-03-14T14:23:21;98702.22;;;15.13;67.92